Time;durP1;ratioP1;P1;durP2;ratioP2;P2;SDS_P1;SDS_P2;PMS_P1;PMS_P2;Temp;Humidity;BMP_temperature;BMP_pressure;BME280_temperature;BME280_humidity;BME280_pressure;Samples;Min_cycle;Max_cycle;Signal;HPM_P1;HPM_P2
2021/12/03 00:01:00;;;;;;;76.63;9.67;;;;;;;;;;4997957;28;20283;-67
2021/12/03 00:03:26;;;;;;;61.43;8.00;;;;;;;;;;4988978;28;20208;-67
2021/12/03 00:05:55;;;;;;;56.30;7.30;;;;;;;;;;5001785;28;20863;-68
2021/12/03 00:08:21;;;;;;;44.77;5.97;;;;;;;;;;5008629;28;20745;-67
2021/12/03 00:10:53;;;;;;;54.40;7.10;;;;;;;;;;5005058;28;20573;-67
2021/12/03 00:13:20;;;;;;;52.23;6.87;;;;;;;;;;5006772;28;20243;-67
2021/12/03 00:15:46;;;;;;;56.30;7.33;;;;;;;;;;4989443;28;20228;-68
2021/12/03 00:18:12;;;;;;;78.33;9.80;;;;;;;;;;5008200;28;20291;-67
2021/12/03 00:20:39;;;;;;;58.00;7.57;;;;;;;;;;5007885;28;20213;-67
2021/12/03 00:23:05;;;;;;;49.13;6.63;;;;;;;;;;5007390;28;20190;-67
2021/12/03 00:25:32;;;;;;;40.37;5.43;;;;;;;;;;5003981;28;20189;-67
2021/12/03 00:27:58;;;;;;;33.93;4.57;;;;;;;;;;5004799;28;20708;-67
2021/12/03 00:30:24;;;;;;;81.57;9.93;;;;;;;;;;4996325;28;22068;-68
2021/12/03 00:32:50;;;;;;;42.37;5.60;;;;;;;;;;5005707;28;20232;-67
2021/12/03 00:35:17;;;;;;;59.33;7.40;;;;;;;;;;5001717;28;20266;-67
2021/12/03 00:37:44;;;;;;;54.10;6.87;;;;;;;;;;4987734;28;20291;-67
2021/12/03 00:40:12;;;;;;;72.07;9.07;;;;;;;;;;4999190;28;20239;-67
2021/12/03 00:42:38;;;;;;;57.37;7.27;;;;;;;;;;5005832;28;20287;-68
2021/12/03 00:45:05;;;;;;;46.23;6.10;;;;;;;;;;4999944;28;20982;-67
2021/12/03 00:47:31;;;;;;;34.67;4.63;;;;;;;;;;4990887;28;20274;-68
2021/12/03 00:49:57;;;;;;;60.43;7.80;;;;;;;;;;5004059;28;20643;-67
2021/12/03 00:52:23;;;;;;;58.10;7.27;;;;;;;;;;5000240;28;20185;-68
2021/12/03 00:54:49;;;;;;;71.13;8.97;;;;;;;;;;4981897;28;20266;-67
2021/12/03 00:57:15;;;;;;;101.83;12.17;;;;;;;;;;4999784;28;20254;-67
2021/12/03 00:59:41;;;;;;;84.80;10.33;;;;;;;;;;4982822;28;20271;-68
2021/12/03 01:02:07;;;;;;;91.03;11.03;;;;;;;;;;4983084;28;20181;-67
2021/12/03 01:04:33;;;;;;;95.43;11.30;;;;;;;;;;5005868;28;20561;-67
2021/12/03 01:07:00;;;;;;;93.20;11.07;;;;;;;;;;5000101;28;20212;-68
2021/12/03 01:09:25;;;;;;;70.60;8.53;;;;;;;;;;5001589;28;20223;-67
2021/12/03 01:11:52;;;;;;;76.30;9.20;;;;;;;;;;5001817;28;20208;-67
2021/12/03 01:14:19;;;;;;;43.83;5.63;;;;;;;;;;4998451;28;20689;-67
2021/12/03 01:16:45;;;;;;;53.43;6.77;;;;;;;;;;5000103;28;20209;-67
2021/12/03 01:19:11;;;;;;;43.47;5.60;;;;;;;;;;4986111;28;20831;-68
2021/12/03 01:21:37;;;;;;;48.63;6.23;;;;;;;;;;5003264;28;20275;-67
2021/12/03 01:24:04;;;;;;;53.27;6.73;;;-1.40;99.90;;;;;;5000925;28;20213;-67
2021/12/03 01:26:32;;;;;;;113.10;13.37;;;;;;;;;;5001696;28;20659;-68
2021/12/03 01:28:58;;;;;;;54.00;7.07;;;;;;;;;;4985000;28;20655;-68
2021/12/03 01:31:24;;;;;;;56.03;7.07;;;;;;;;;;4988945;28;20178;-67
2021/12/03 01:33:50;;;;;;;66.87;8.20;;;;;;;;;;5001740;28;20209;-67
2021/12/03 01:36:16;;;;;;;86.27;10.20;;;;;;;;;;5000378;28;20213;-68
2021/12/03 01:38:43;;;;;;;45.87;5.90;;;;;;;;;;5001082;28;20364;-68
2021/12/03 01:41:09;;;;;;;88.40;10.80;;;-1.10;99.90;;;;;;4993665;28;20190;-67
2021/12/03 01:43:35;;;;;;;73.93;8.97;;;;;;;;;;4981612;28;20189;-67
2021/12/03 01:46:06;;;;;;;89.53;10.83;;;;;;;;;;4997767;28;20270;-67
2021/12/03 01:48:32;;;;;;;66.50;8.17;;;;;;;;;;4999683;28;21737;-67
2021/12/03 01:50:59;;;;;;;65.50;8.10;;;;;;;;;;4998797;28;20250;-68
2021/12/03 01:53:26;;;;;;;46.53;6.00;;;;;;;;;;4981307;28;20217;-67
2021/12/03 01:55:54;;;;;;;91.17;10.77;;;;;;;;;;4996954;28;20190;-67
2021/12/03 01:58:20;;;;;;;65.90;8.10;;;;;;;;;;4995708;28;20273;-68
2021/12/03 02:00:51;;;;;;;58.23;7.27;;;;;;;;;;4979767;28;20275;-67
2021/12/03 02:03:19;;;;;;;80.10;9.70;;;;;;;;;;5001281;28;20216;-67
2021/12/03 02:05:45;;;;;;;82.80;9.87;;;;;;;;;;4973846;28;20216;-67
2021/12/03 02:08:11;;;;;;;76.47;9.30;;;;;;;;;;5002134;28;20262;-68
2021/12/03 02:10:38;;;;;;;61.67;7.70;;;-0.90;99.90;;;;;;4999333;28;20791;-67
2021/12/03 02:13:04;;;;;;;53.87;6.73;;;;;;;;;;4992288;28;20224;-67
2021/12/03 02:15:30;;;;;;;46.37;6.07;;;-1.10;99.90;;;;;;5002182;28;20561;-67
2021/12/03 02:17:56;;;;;;;55.07;6.93;;;;;;;;;;4998975;28;20216;-67
2021/12/03 02:20:22;;;;;;;92.57;10.87;;;;;;;;;;5003330;28;20221;-68
2021/12/03 02:22:49;;;;;;;72.10;8.63;;;;;;;;;;4991743;28;20796;-67
2021/12/03 02:25:20;;;;;;;64.57;8.03;;;;;;;;;;4984791;28;20581;-67
2021/12/03 02:27:45;;;;;;;48.07;6.20;;;;;;;;;;4980395;28;20217;-67
2021/12/03 02:30:11;;;;;;;68.30;8.33;;;-1.30;99.90;;;;;;4995725;28;20208;-67
2021/12/03 02:32:37;;;;;;;60.03;7.40;;;;;;;;;;4994838;28;20216;-67
2021/12/03 02:35:04;;;;;;;49.33;6.50;;;;;;;;;;5004409;28;20177;-67
2021/12/03 02:37:30;;;;;;;59.77;7.57;;;;;;;;;;4998504;28;20292;-68
2021/12/03 02:39:56;;;;;;;52.03;6.60;;;;;;;;;;4996007;28;20339;-68
2021/12/03 02:42:22;;;;;;;68.57;8.50;;;;;;;;;;5002203;28;20213;-67
2021/12/03 02:44:48;;;;;;;113.77;13.37;;;;;;;;;;4975406;28;20308;-67
2021/12/03 02:47:14;;;;;;;60.73;7.43;;;;;;;;;;4981911;28;20777;-68
2021/12/03 02:49:41;;;;;;;69.33;8.47;;;;;;;;;;4984038;28;20277;-67
2021/12/03 02:52:08;;;;;;;53.83;6.87;;;;;;;;;;5004271;28;20585;-67
2021/12/03 02:54:34;;;;;;;55.60;6.97;;;;;;;;;;4979140;28;20266;-67
2021/12/03 02:57:01;;;;;;;40.53;5.23;;;;;;;;;;5002376;28;20617;-68
2021/12/03 02:59:27;;;;;;;89.20;10.67;;;;;;;;;;4998771;28;20237;-67
2021/12/03 03:01:52;;;;;;;66.07;8.07;;;;;;;;;;4997109;28;20227;-67
2021/12/03 03:04:18;;;;;;;45.40;5.90;;;;;;;;;;5000431;28;20292;-67
2021/12/03 03:06:44;;;;;;;60.63;7.60;;;;;;;;;;4980006;28;20248;-67
2021/12/03 03:09:12;;;;;;;45.93;5.97;;;;;;;;;;4999014;28;20287;-68
2021/12/03 03:11:38;;;;;;;82.50;9.90;;;;;;;;;;4997397;28;20645;-67
2021/12/03 03:14:04;;;;;;;112.90;13.33;;;;;;;;;;4999251;28;20181;-67
2021/12/03 03:16:30;;;;;;;101.60;11.87;;;;;;;;;;4995051;28;20736;-67
2021/12/03 03:18:56;;;;;;;52.07;6.53;;;;;;;;;;5000369;28;20719;-67
2021/12/03 03:21:22;;;;;;;86.83;10.33;;;;;;;;;;4998004;28;20246;-67
2021/12/03 03:23:49;;;;;;;55.60;7.00;;;;;;;;;;4999682;28;20247;-68
2021/12/03 03:26:15;;;;;;;101.17;11.83;;;;;;;;;;5001328;28;20242;-67
2021/12/03 03:28:41;;;;;;;76.00;9.17;;;;;;;;;;4997213;28;20657;-68
2021/12/03 03:31:07;;;;;;;45.77;5.83;;;;;;;;;;4998490;28;20213;-68
2021/12/03 03:33:34;;;;;;;56.57;7.07;;;;;;;;;;5005183;28;20702;-68
2021/12/03 03:36:00;;;;;;;76.57;9.27;;;;;;;;;;4979254;28;20240;-67
2021/12/03 03:38:26;;;;;;;50.10;6.37;;;;;;;;;;4996422;28;20232;-67
2021/12/03 03:40:52;;;;;;;88.77;10.43;;;;;;;;;;5000603;28;20207;-68
2021/12/03 03:43:18;;;;;;;83.83;9.83;;;;;;;;;;4992591;28;20784;-67
2021/12/03 03:45:44;;;;;;;50.67;6.30;;;;;;;;;;4994805;28;20209;-67
2021/12/03 03:48:10;;;;;;;59.33;7.33;;;;;;;;;;5001281;28;20712;-68
2021/12/03 03:50:37;;;;;;;55.57;7.03;;;;;;;;;;5000306;28;20323;-67
2021/12/03 03:53:03;;;;;;;77.47;9.47;;;;;;;;;;4996105;28;20185;-67
2021/12/03 03:55:29;;;;;;;63.13;7.77;;;;;;;;;;4995991;28;20177;-68
2021/12/03 03:57:56;;;;;;;85.70;10.17;;;;;;;;;;4993510;28;20229;-67
2021/12/03 04:00:25;;;;;;;91.17;10.67;;;;;;;;;;4976387;28;20847;-67
2021/12/03 04:02:51;;;;;;;59.10;7.33;;;;;;;;;;4995957;28;20367;-67
2021/12/03 04:05:17;;;;;;;60.13;7.43;;;;;;;;;;4979105;28;20295;-68
2021/12/03 04:07:43;;;;;;;52.40;6.53;;;;;;;;;;4981701;28;20212;-67
2021/12/03 04:10:10;;;;;;;111.57;14.20;;;;;;;;;;4982942;23;20259;-50
2021/12/03 04:12:36;;;;;;;111.83;14.23;;;;;;;;;;4986315;28;20216;-50
2021/12/03 04:15:03;;;;;;;68.17;8.83;;;;;;;;;;4990423;28;20534;-51
2021/12/03 04:17:29;;;;;;;67.93;8.77;;;;;;;;;;4993596;28;20241;-51
2021/12/03 04:19:55;;;;;;;71.47;9.43;;;;;;;;;;4986725;28;20224;-51
2021/12/03 04:22:24;;;;;;;75.10;10.10;;;;;;;;;;4992984;28;20235;-50
2021/12/03 04:24:54;;;;;;;56.27;7.63;;;-1.40;99.90;;;;;;4997094;28;20235;-50
2021/12/03 04:27:20;;;;;;;123.27;16.23;;;;;;;;;;4979634;28;20688;-51
2021/12/03 04:29:46;;;;;;;44.00;6.00;;;;;;;;;;4993171;28;20784;-50
2021/12/03 04:32:14;;;;;;;109.10;14.70;;;-1.50;99.90;;;;;;4989830;28;20534;-51
2021/12/03 04:34:40;;;;;;;97.87;13.13;;;;;;;;;;4987930;28;20214;-51
2021/12/03 04:37:06;;;;;;;111.70;14.80;;;-1.40;99.90;;;;;;4990855;28;20227;-50
2021/12/03 04:39:32;;;;;;;85.47;11.43;;;;;;;;;;4993591;28;20221;-50
2021/12/03 04:41:58;;;;;;;76.67;10.20;;;;;;;;;;4992948;28;20731;-51
2021/12/03 04:44:24;;;;;;;48.10;6.50;;;;;;;;;;4992818;28;20268;-50
2021/12/03 04:46:50;;;;;;;48.90;6.60;;;;;;;;;;4997000;28;20275;-50
2021/12/03 04:49:16;;;;;;;128.93;16.73;;;;;;;;;;4990512;28;20448;-51
2021/12/03 04:51:42;;;;;;;33.30;4.63;;;;;;;;;;4989596;28;20217;-50
2021/12/03 04:54:07;;;;;;;69.57;9.73;;;-1.40;99.90;;;;;;4985080;28;20220;-51
2021/12/03 04:56:33;;;;;;;104.53;13.50;;;;;;;;;;4988390;28;20225;-51
2021/12/03 04:58:59;;;;;;;100.63;13.20;;;;;;;;;;4993272;28;20200;-51
2021/12/03 05:01:25;;;;;;;99.50;12.93;;;;;;;;;;4986712;28;20221;-50
2021/12/03 05:03:51;;;;;;;102.17;13.03;;;;;;;;;;4983980;28;20228;-50
2021/12/03 05:06:28;;;;;;;152.97;19.93;;;;;;;;;;4994958;28;20216;-50
2021/12/03 05:08:54;;;;;;;84.37;11.00;;;;;;;;;;4992419;28;20318;-49
2021/12/03 05:11:20;;;;;;;94.63;12.37;;;;;;;;;;4988203;28;20225;-50
2021/12/03 05:13:47;;;;;;;78.20;10.23;;;;;;;;;;4988631;28;20208;-51
2021/12/03 05:16:13;;;;;;;69.40;9.40;;;;;;;;;;4992603;28;20739;-50
2021/12/03 05:18:41;;;;;;;45.37;6.47;;;;;;;;;;4998742;28;20209;-51
2021/12/03 05:21:07;;;;;;;102.93;13.27;;;;;;;;;;4988360;28;20218;-50
2021/12/03 05:23:33;;;;;;;60.63;8.13;;;;;;;;;;4992230;28;20491;-51
2021/12/03 05:25:59;;;;;;;124.67;15.40;;;-0.90;99.90;;;;;;4990503;28;20240;-51
2021/12/03 05:28:26;;;;;;;83.37;10.93;;;-1.50;99.90;;;;;;4988701;28;20291;-51
2021/12/03 05:30:52;;;;;;;89.20;11.67;;;;;;;;;;4992402;28;20336;-50
2021/12/03 05:33:19;;;;;;;57.27;7.63;;;-1.00;99.90;;;;;;4993635;28;20213;-51
2021/12/03 05:35:45;;;;;;;71.60;9.33;;;;;;;;;;4997946;28;20224;-50
2021/12/03 05:38:11;;;;;;;110.43;14.27;;;;;;;;;;4992116;28;20188;-50
2021/12/03 05:40:37;;;;;;;73.80;9.57;;;-1.10;99.90;;;;;;4990795;28;20288;-51
2021/12/03 05:43:03;;;;;;;89.93;11.73;;;;;;;;;;4989878;28;20628;-50
2021/12/03 05:45:31;;;;;;;53.17;7.27;;;-0.90;99.90;;;;;;4988760;28;20219;-51
2021/12/03 05:47:58;;;;;;;70.37;9.27;;;;;;;;;;4994003;28;20259;-51
2021/12/03 05:50:24;;;;;;;100.73;13.10;;;;;;;;;;4993675;28;20209;-51
2021/12/03 05:52:51;;;;;;;84.57;10.93;;;-0.90;99.90;;;;;;4994631;28;20185;-50
2021/12/03 05:55:18;;;;;;;71.13;9.47;;;;;;;;;;4992562;28;20705;-51
2021/12/03 05:57:44;;;;;;;54.03;7.37;;;-0.90;99.90;;;;;;4981724;28;20240;-50
2021/12/03 06:00:15;;;;;;;122.70;15.73;;;-0.90;99.90;;;;;;4992876;28;20229;-51
2021/12/03 06:02:42;;;;;;;72.93;9.63;;;;;;;;;;4987837;28;20552;-50
2021/12/03 06:05:08;;;;;;;123.90;16.90;;;-1.10;99.90;;;;;;4986919;28;20201;-51
2021/12/03 06:07:34;;;;;;;64.73;8.70;;;-1.00;99.90;;;;;;4992127;28;20850;-51
2021/12/03 06:09:59;;;;;;;101.37;13.13;;;-1.00;99.90;;;;;;4990382;28;20224;-51
2021/12/03 06:12:25;;;;;;;62.47;8.37;;;;;;;;;;4988518;28;20220;-51
2021/12/03 06:14:51;;;;;;;92.47;11.83;;;;;;;;;;4980240;28;20253;-51
2021/12/03 06:17:17;;;;;;;109.73;14.27;;;;;;;;;;4983573;28;20245;-51
2021/12/03 06:19:43;;;;;;;54.33;7.10;;;-1.10;99.90;;;;;;4988350;28;20717;-51
2021/12/03 06:22:10;;;;;;;116.33;15.00;;;;;;;;;;4987453;28;20236;-51
2021/12/03 06:24:37;;;;;;;104.33;13.43;;;;;;;;;;4992664;28;20220;-50
2021/12/03 06:27:03;;;;;;;174.07;21.77;;;;;;;;;;4981055;28;20316;-51
2021/12/03 06:29:29;;;;;;;74.07;9.97;;;;;;;;;;4985962;28;20229;-51
2021/12/03 06:31:55;;;;;;;115.90;14.73;;;-1.00;99.90;;;;;;4986570;28;20518;-51
2021/12/03 06:34:21;;;;;;;143.17;17.90;;;;;;;;;;4988820;28;20214;-51
2021/12/03 06:36:46;;;;;;;63.60;8.43;;;-0.90;99.90;;;;;;4990605;28;20248;-50
2021/12/03 06:39:13;;;;;;;66.47;8.67;;;;;;;;;;4979688;28;20229;-49
2021/12/03 06:41:39;;;;;;;42.40;6.00;;;;;;;;;;4980461;28;20263;-50
2021/12/03 06:44:05;;;;;;;171.83;23.37;;;;;;;;;;4983034;28;20712;-50
2021/12/03 06:46:32;;;;;;;116.70;15.43;;;-1.10;99.90;;;;;;4983929;28;20662;-49
2021/12/03 06:48:58;;;;;;;104.73;13.50;;;-0.90;99.90;;;;;;4987796;28;20221;-50
2021/12/03 06:51:24;;;;;;;115.73;15.33;;;;;;;;;;4979514;28;20216;-50
2021/12/03 06:53:59;;;;;;;61.67;7.83;;;;;;;;;;4992447;28;20221;-50
2021/12/03 06:56:33;;;;;;;152.67;19.67;;;;;;;;;;4981615;28;20216;-50
2021/12/03 06:58:59;;;;;;;119.27;15.33;;;-0.80;99.90;;;;;;4985120;28;20191;-50
2021/12/03 07:01:25;;;;;;;145.50;19.03;;;;;;;;;;4982457;28;20201;-50
2021/12/03 07:03:52;;;;;;;51.03;6.90;;;;;;;;;;4987094;28;20283;-50
2021/12/03 07:06:17;;;;;;;138.37;18.20;;;;;;;;;;4993657;28;20213;-50
2021/12/03 07:08:43;;;;;;;154.70;19.83;;;;;;;;;;4982517;28;20251;-50
2021/12/03 07:11:09;;;;;;;91.97;12.17;;;;;;;;;;4980081;28;20205;-50
2021/12/03 07:13:35;;;;;;;71.23;9.30;;;;;;;;;;4991414;28;20206;-50
2021/12/03 07:16:05;;;;;;;88.40;11.77;;;;;;;;;;4988445;28;20225;-50
2021/12/03 07:18:31;;;;;;;155.70;20.17;;;;;;;;;;4986839;28;20240;-50
2021/12/03 07:20:57;;;;;;;135.60;17.47;;;;;;;;;;4973960;28;20205;-49
2021/12/03 07:23:23;;;;;;;95.30;12.43;;;;;;;;;;4984228;28;20276;-50
2021/12/03 07:25:49;;;;;;;111.47;14.23;;;;;;;;;;4976431;28;20295;-50
2021/12/03 07:28:16;;;;;;;114.03;14.90;;;;;;;;;;4976707;28;20225;-50
2021/12/03 07:30:42;;;;;;;83.03;10.80;;;;;;;;;;4981850;28;20303;-49
2021/12/03 07:33:11;;;;;;;144.70;18.47;;;;;;;;;;4985385;28;20216;-50
2021/12/03 07:35:38;;;;;;;173.37;22.07;;;;;;;;;;4974921;28;20228;-50
2021/12/03 07:38:03;;;;;;;99.77;12.83;;;;;;;;;;4979777;28;20203;-50
2021/12/03 07:40:29;;;;;;;65.30;8.53;;;0.30;99.90;;;;;;4993032;28;20189;-50
2021/12/03 07:42:55;;;;;;;94.60;12.30;;;;;;;;;;4986026;28;20312;-50
2021/12/03 07:45:21;;;;;;;84.57;11.13;;;;;;;;;;4983784;28;20248;-50
2021/12/03 07:47:47;;;;;;;77.77;10.40;;;;;;;;;;4993190;28;20225;-50
2021/12/03 07:50:14;;;;;;;102.97;13.37;;;-0.20;99.90;;;;;;4984755;28;21715;-49
2021/12/03 07:52:40;;;;;;;94.67;12.07;;;;;;;;;;4986067;28;20200;-50
2021/12/03 07:55:07;;;;;;;71.03;9.40;;;;;;;;;;4984424;28;20296;-50
2021/12/03 07:57:33;;;;;;;363.23;48.13;;;;;;;;;;4961523;28;20221;-49
2021/12/03 07:59:59;;;;;;;156.97;21.00;;;;;;;;;;4961289;28;20217;-49
2021/12/03 08:02:26;;;;;;;103.10;13.97;;;;;;;;;;4978135;28;20611;-50
2021/12/03 08:04:52;;;;;;;81.90;10.93;;;;;;;;;;4978600;28;20205;-49
2021/12/03 08:07:19;;;;;;;96.00;12.43;;;;;;;;;;4977623;28;20221;-50
2021/12/03 08:09:45;;;;;;;138.03;17.90;;;;;;;;;;4972040;28;20232;-49
2021/12/03 08:12:11;;;;;;;118.50;15.13;;;;;;;;;;4986494;28;20315;-49
2021/12/03 08:14:37;;;;;;;109.73;13.57;;;;;;;;;;4978097;28;20765;-49
2021/12/03 08:17:03;;;;;;;156.07;20.17;;;;;;;;;;4984167;28;20188;-49
2021/12/03 08:19:29;;;;;;;251.83;32.60;;;;;;;;;;4974448;28;20177;-49
2021/12/03 08:21:55;;;;;;;190.00;24.60;;;;;;;;;;4982781;28;20217;-49
2021/12/03 08:24:21;;;;;;;55.00;7.20;;;;;;;;;;4985853;28;20629;-50
2021/12/03 08:26:47;;;;;;;52.13;7.07;;;;;;;;;;4983312;28;20221;-49
2021/12/03 08:29:13;;;;;;;109.17;14.27;;;;;;;;;;4984481;28;20213;-49
2021/12/03 08:31:39;;;;;;;194.43;23.93;;;;;;;;;;4977678;28;20197;-49
2021/12/03 08:34:05;;;;;;;175.57;21.70;;;;;;;;;;4980614;28;20225;-49
2021/12/03 08:36:31;;;;;;;181.93;22.80;;;;;;;;;;4986048;28;20216;-49
2021/12/03 08:38:57;;;;;;;144.33;17.70;;;;;;;;;;4979833;28;20213;-49
2021/12/03 08:41:23;;;;;;;132.00;16.60;;;;;;;;;;4987890;28;20223;-50
2021/12/03 08:43:50;;;;;;;113.80;14.17;;;;;;;;;;4989647;28;20185;-49
2021/12/03 08:46:30;;;;;;;173.87;22.30;;;;;;;;;;4990279;28;20301;-50
2021/12/03 08:49:07;;;;;;;101.43;12.97;;;;;;;;;;4984225;28;20229;-49
2021/12/03 08:56:53;;;;;;;88.27;11.17;;;;;;;;;;4981117;28;20283;-54
2021/12/03 08:59:20;;;;;;;121.13;15.10;;;;;;;;;;4987398;28;20224;-54
2021/12/03 09:01:46;;;;;;;158.97;19.97;;;;;;;;;;4990619;28;20188;-54
2021/12/03 09:04:16;;;;;;;120.30;15.73;;;;;;;;;;4982127;28;20284;-54
2021/12/03 09:06:42;;;;;;;112.97;14.17;;;;;;;;;;4975277;28;20225;-53
2021/12/03 09:09:08;;;;;;;95.93;12.17;;;;;;;;;;4981041;28;20239;-54
2021/12/03 09:11:38;;;;;;;100.83;13.10;;;;;;;;;;4985332;28;20228;-54
2021/12/03 09:14:14;;;;;;;179.23;22.63;;;;;;;;;;4980277;28;20219;-53
2021/12/03 09:16:40;;;;;;;92.80;11.87;;;;;;;;;;4979503;28;20180;-53
2021/12/03 09:19:14;;;;;;;120.00;15.40;;;;;;;;;;4981922;28;20209;-54
2021/12/03 09:21:40;;;;;;;57.47;7.87;;;;;;;;;;4983001;28;20840;-54
2021/12/03 09:24:12;;;;;;;89.23;11.47;;;;;;;;;;4985589;28;20225;-53
2021/12/03 09:26:41;;;;;;;164.07;21.30;;;;;;;;;;4986786;28;20704;-52
2021/12/03 09:29:10;;;;;;;181.97;23.00;;;;;;;;;;4985831;28;20221;-52
2021/12/03 09:31:37;;;;;;;76.57;9.67;;;;;;;;;;4992047;28;20185;-51
2021/12/03 09:34:08;;;;;;;105.47;13.17;;;2.00;99.90;;;;;;4983576;28;20261;-49
2021/12/03 09:36:34;;;;;;;79.63;10.30;;;2.70;99.90;;;;;;4983166;28;20237;-50
2021/12/03 09:39:00;;;;;;;140.27;17.30;;;;;;;;;;4969368;28;20213;-50
2021/12/03 09:41:26;;;;;;;76.60;9.83;;;;;;;;;;4999219;28;20240;-49
2021/12/03 09:43:53;;;;;;;110.20;13.73;;;;;;;;;;5000975;28;20185;-49
2021/12/03 09:46:23;;;;;;;129.43;16.70;;;2.40;99.90;;;;;;4969316;28;20617;-50
2021/12/03 09:51:33;;;;;;;127.37;17.43;;;2.60;99.90;;;;;;4979779;28;20262;-49
2021/12/03 09:56:30;;;;;;;199.27;24.60;;;;;;;;;;4983969;28;20271;-50
2021/12/03 09:59:31;;;;;;;86.17;11.47;;;;;;;;;;4998081;28;20933;-49
2021/12/03 10:01:52;;;;;;;71.00;9.17;;;;;;;;;;4995317;28;20193;-50
2021/12/03 10:05:02;;;;;;;63.80;8.47;;;;;;;;;;4992584;28;20253;-50
2021/12/03 10:12:31;;;;;;;52.30;7.20;;;;;;;;;;4993109;28;20224;-49
2021/12/03 10:18:04;;;;;;;55.73;7.60;;;;;;;;;;4996754;28;20389;-49
2021/12/03 10:20:35;;;;;;;105.33;13.53;;;;;;;;;;4993355;28;20804;-50
2021/12/03 10:31:58;;;;;;;137.73;17.40;;;2.90;99.90;;;;;;4988063;28;20220;-50
2021/12/03 10:34:25;;;;;;;199.17;26.47;;;;;;;;;;4987147;28;20216;-49
2021/12/03 10:37:25;;;;;;;235.63;29.37;;;;;;;;;;4977044;28;20316;-49
2021/12/03 10:39:47;;;;;;;81.13;10.53;;;;;;;;;;4989952;28;20319;-49
2021/12/03 10:48:04;;;;;;;194.80;25.00;;;;;;;;;;4980278;28;20224;-50
2021/12/03 10:59:10;;;;;;;98.80;13.20;;;3.30;99.90;;;;;;4993192;28;20274;-50
2021/12/03 11:16:03;;;;;;;121.97;16.00;;;;;;;;;;4973774;28;20236;-50
2021/12/03 11:27:20;;;;;;;376.63;50.53;;;;;;;;;;4945139;28;20311;-49
2021/12/03 11:41:17;;;;;;;289.17;37.90;;;4.10;99.90;;;;;;4967402;28;20637;-49
2021/12/03 12:35:58;;;;;;;222.07;29.13;;;4.30;99.90;;;;;;4930194;28;20364;-49
2021/12/03 14:03:22;;;;;;;103.17;13.63;;;2.80;99.90;;;;;;4982298;28;20227;-50
2021/12/03 14:11:41;;;;;;;170.13;22.37;;;2.70;99.90;;;;;;4984143;28;20236;-50
2021/12/03 14:20:35;;;;;;;111.00;14.50;;;2.80;99.90;;;;;;4989450;28;20220;-50
2021/12/03 14:47:40;;;;;;;83.37;10.93;;;2.00;99.90;;;;;;4981944;28;20300;-50
2021/12/03 14:52:26;;;;;;;214.73;28.30;;;2.00;99.90;;;;;;4981950;28;20227;-50
2021/12/03 14:54:55;;;;;;;64.33;8.57;;;;;;;;;;4985536;28;20232;-50
2021/12/03 15:00:14;;;;;;;141.23;18.57;;;2.00;99.90;;;;;;4984303;28;20249;-51
2021/12/03 15:06:04;;;;;;;217.73;29.73;;;2.00;99.90;;;;;;4982202;28;20228;-50
2021/12/03 15:08:38;;;;;;;127.63;16.73;;;1.90;99.90;;;;;;4985015;28;20229;-50
2021/12/03 15:27:24;;;;;;;117.33;15.10;;;1.90;99.90;;;;;;4987775;28;20248;-50
2021/12/03 15:35:20;;;;;;;78.10;10.17;;;1.90;99.90;;;;;;4986279;28;20225;-50
2021/12/03 15:54:48;;;;;;;61.00;8.13;;;1.70;99.90;;;;;;4980321;28;20714;-50
2021/12/03 16:05:17;;;;;;;116.97;15.13;;;2.00;99.90;;;;;;4981822;28;20366;-50
2021/12/03 16:10:19;;;;;;;147.67;18.97;;;;;;;;;;4974709;28;20720;-51
2021/12/03 16:13:14;;;;;;;183.40;24.10;;;;;;;;;;4978460;28;20204;-50
2021/12/03 16:23:41;;;;;;;167.67;21.37;;;;;;;;;;4970809;28;20304;-50
2021/12/03 16:52:58;;;;;;;79.90;10.07;;;;;;;;;;4987427;28;20189;-50
2021/12/03 16:55:24;;;;;;;60.83;8.17;;;;;;;;;;4986100;28;20204;-50
2021/12/03 16:57:52;;;;;;;161.27;21.10;;;;;;;;;;4983112;28;20218;-51
2021/12/03 17:00:34;;;;;;;101.67;13.10;;;1.90;99.90;;;;;;4991813;28;20213;-50
2021/12/03 17:04:11;;;;;;;134.27;16.67;;;;;;;;;;4983574;28;20213;-50
2021/12/03 17:17:27;;;;;;;141.70;17.30;;;;;;;;;;4990447;28;20826;-50
2021/12/03 17:23:06;;;;;;;158.57;19.93;;;;;;;;;;4984590;28;20394;-51
2021/12/03 17:26:05;;;;;;;130.03;16.63;;;;;;;;;;4981982;28;20221;-50
2021/12/03 17:31:08;;;;;;;144.97;18.73;;;;;;;;;;4985493;28;20244;-50
2021/12/03 17:55:29;;;;;;;108.57;13.73;;;2.10;99.90;;;;;;4987893;28;20228;-50
2021/12/03 18:00:51;;;;;;;95.70;12.47;;;2.00;99.90;;;;;;4986146;28;20217;-50
2021/12/03 18:19:40;;;;;;;71.90;9.30;;;;;;;;;;4986946;28;20780;-50
2021/12/03 18:44:09;;;;;;;107.07;13.57;;;;;;;;;;4980288;28;20220;-50
2021/12/03 18:49:23;;;;;;;114.17;14.37;;;;;;;;;;4984205;28;20854;-50
2021/12/03 18:54:34;;;;;;;107.00;14.10;;;;;;;;;;4976522;28;20229;-50
2021/12/03 18:57:08;;;;;;;158.37;20.23;;;;;;;;;;4980264;28;20248;-50
2021/12/03 18:59:38;;;;;;;105.30;13.57;;;;;;;;;;4985103;28;20217;-50
2021/12/03 19:02:08;;;;;;;125.87;16.40;;;2.00;99.90;;;;;;4976774;28;20300;-50
2021/12/03 19:04:44;;;;;;;115.03;15.03;;;;;;;;;;4986551;28;20266;-50
2021/12/03 19:07:19;;;;;;;100.43;13.07;;;;;;;;;;4980627;28;20221;-50
2021/12/03 19:09:49;;;;;;;100.77;12.90;;;;;;;;;;4990095;28;20232;-50
2021/12/03 19:12:20;;;;;;;81.33;10.70;;;;;;;;;;4981172;28;20746;-51
2021/12/03 19:14:57;;;;;;;103.63;13.37;;;;;;;;;;4981000;28;20228;-50
2021/12/03 19:17:24;;;;;;;100.50;13.27;;;1.60;99.90;;;;;;4980433;28;20224;-50
2021/12/03 19:19:55;;;;;;;151.97;19.33;;;1.90;99.90;;;;;;4991304;28;20184;-51
2021/12/03 19:22:22;;;;;;;118.83;15.10;;;;;;;;;;4976502;28;20291;-50
2021/12/03 19:24:48;;;;;;;81.50;10.80;;;;;;;;;;4986266;28;20228;-50
2021/12/03 19:27:14;;;;;;;130.60;16.90;;;;;;;;;;4979361;28;20924;-50
2021/12/03 19:29:43;;;;;;;121.07;15.77;;;;;;;;;;4982933;28;20230;-50
2021/12/03 19:32:09;;;;;;;157.53;20.13;;;1.90;99.90;;;;;;4978680;28;20185;-50
2021/12/03 19:34:35;;;;;;;86.67;10.93;;;;;;;;;;4992573;28;20209;-51
2021/12/03 19:37:01;;;;;;;123.07;15.67;;;;;;;;;;4987763;28;20216;-50
2021/12/03 19:39:27;;;;;;;81.40;10.83;;;;;;;;;;4987068;28;20938;-50
2021/12/03 19:44:33;;;;;;;111.93;15.00;;;;;;;;;;4981138;28;20217;-50
2021/12/03 19:46:59;;;;;;;92.03;12.37;;;;;;;;;;4982361;28;20173;-50
2021/12/03 19:51:56;;;;;;;89.77;11.87;;;;;;;;;;4978121;28;20348;-50
2021/12/03 19:54:22;;;;;;;99.90;13.33;;;2.00;99.90;;;;;;4987748;28;20693;-50
2021/12/03 19:56:49;;;;;;;191.07;24.83;;;2.30;99.90;;;;;;4975864;28;20216;-50
2021/12/03 19:59:17;;;;;;;93.83;12.60;;;2.00;99.90;;;;;;4980224;28;20752;-50
2021/12/03 20:01:44;;;;;;;58.00;7.97;;;2.00;99.90;;;;;;4968208;28;20185;-50
2021/12/03 20:04:10;;;;;;;92.40;12.53;;;1.90;99.90;;;;;;4969159;28;20221;-51
2021/12/03 20:06:41;;;;;;;91.80;12.77;;;2.00;99.90;;;;;;4981748;28;23759;-50
2021/12/03 20:09:10;;;;;;;67.87;8.97;;;2.00;99.90;;;;;;4989814;28;20224;-51
2021/12/03 20:11:45;;;;;;;92.37;12.13;;;2.10;99.90;;;;;;4988163;28;20210;-51
2021/12/03 20:14:13;;;;;;;123.23;15.93;;;;;;;;;;4981632;28;20193;-50
2021/12/03 20:16:45;;;;;;;77.90;10.33;;;2.00;99.90;;;;;;4987669;28;20178;-50
2021/12/03 20:19:32;;;;;;;112.90;14.57;;;2.20;99.90;;;;;;4987987;28;20222;-51
2021/12/03 20:22:10;;;;;;;66.93;8.90;;;;;;;;;;4989739;28;20205;-50
2021/12/03 20:27:12;;;;;;;127.53;16.23;;;;;;;;;;4976898;28;20275;-50
2021/12/03 20:35:23;;;;;;;109.23;14.57;;;;;;;;;;4978671;28;20209;-52
2021/12/03 20:37:50;;;;;;;108.60;14.70;;;;;;;;;;4982964;28;20359;-51
2021/12/03 20:40:20;;;;;;;55.17;7.43;;;;;;;;;;4993442;28;20254;-50
2021/12/03 20:50:52;;;;;;;105.57;13.90;;;;;;;;;;4991155;28;20236;-50
2021/12/03 20:53:32;;;;;;;59.00;8.13;;;;;;;;;;4997749;28;20222;-50
2021/12/03 21:09:41;;;;;;;51.67;7.20;;;;;;;;;;4993004;28;20574;-51
2021/12/03 21:14:50;;;;;;;54.60;7.57;;;2.00;99.90;;;;;;4991880;28;20245;-51
2021/12/03 21:20:42;;;;;;;61.87;8.43;;;;;;;;;;4989908;28;20251;-51
2021/12/03 21:22:46;;;;;;;67.27;9.13;;;;;;;;;;4987601;28;20221;-51
2021/12/03 21:25:16;;;;;;;59.83;7.93;;;;;;;;;;4991691;28;20225;-51
2021/12/03 21:27:44;;;;;;;58.93;8.00;;;;;;;;;;4992166;28;20222;-51
2021/12/03 21:30:18;;;;;;;103.77;13.43;;;2.10;99.90;;;;;;4993367;28;20316;-51
2021/12/03 21:43:16;;;;;;;103.70;13.73;;;2.10;99.90;;;;;;4985131;28;20970;-51
2021/12/03 21:45:42;;;;;;;57.30;7.83;;;;;;;;;;4985714;28;20347;-51
2021/12/03 21:48:08;;;;;;;113.37;14.83;;;;;;;;;;4994901;28;20214;-51
2021/12/03 21:50:34;;;;;;;94.60;12.77;;;;;;;;;;4986494;28;20229;-51
2021/12/03 21:53:02;;;;;;;89.53;12.13;;;;;;;;;;4983309;28;20181;-51
2021/12/03 21:55:28;;;;;;;48.47;6.83;;;;;;;;;;4986523;28;20228;-50
2021/12/03 21:57:54;;;;;;;126.47;16.83;;;;;;;;;;4977832;28;20377;-51